sensor_id;sensor_type;location;lat;lon;timestamp;P1;durP1;ratioP1;P2;durP2;ratioP2
23617;SDS011;18207;32.078;34.818;2022-10-31T00:00:17;2.42;;;2.33;;
23617;SDS011;18207;32.078;34.818;2022-10-31T00:02:47;2.40;;;2.20;;
23617;SDS011;18207;32.078;34.818;2022-10-31T00:05:19;2.20;;;2.03;;
23617;SDS011;18207;32.078;34.818;2022-10-31T00:07:51;2.47;;;2.28;;
23617;SDS011;18207;32.078;34.818;2022-10-31T00:10:22;2.20;;;2.10;;
23617;SDS011;18207;32.078;34.818;2022-10-31T00:12:52;2.53;;;2.20;;
23617;SDS011;18207;32.078;34.818;2022-10-31T00:15:25;2.50;;;2.30;;
23617;SDS011;18207;32.078;34.818;2022-10-31T00:17:55;2.40;;;2.20;;
23617;SDS011;18207;32.078;34.818;2022-10-31T00:23:16;2.30;;;2.15;;
23617;SDS011;18207;32.078;34.818;2022-10-31T00:25:46;2.70;;;2.03;;
23617;SDS011;18207;32.078;34.818;2022-10-31T00:28:16;2.50;;;2.30;;
23617;SDS011;18207;32.078;34.818;2022-10-31T00:30:46;2.45;;;2.25;;
23617;SDS011;18207;32.078;34.818;2022-10-31T00:33:16;2.90;;;2.58;;
23617;SDS011;18207;32.078;34.818;2022-10-31T00:35:50;2.35;;;2.25;;
23617;SDS011;18207;32.078;34.818;2022-10-31T00:38:20;2.58;;;2.38;;
23617;SDS011;18207;32.078;34.818;2022-10-31T00:40:50;2.88;;;2.45;;
23617;SDS011;18207;32.078;34.818;2022-10-31T00:43:20;3.88;;;2.30;;
23617;SDS011;18207;32.078;34.818;2022-10-31T00:45:50;2.47;;;2.30;;
23617;SDS011;18207;32.078;34.818;2022-10-31T00:48:21;2.75;;;2.10;;
23617;SDS011;18207;32.078;34.818;2022-10-31T00:50:52;2.22;;;2.13;;
23617;SDS011;18207;32.078;34.818;2022-10-31T00:53:23;2.88;;;2.10;;
23617;SDS011;18207;32.078;34.818;2022-10-31T00:55:54;2.33;;;2.20;;
23617;SDS011;18207;32.078;34.818;2022-10-31T00:58:25;2.72;;;2.30;;
23617;SDS011;18207;32.078;34.818;2022-10-31T01:00:55;2.53;;;2.33;;
23617;SDS011;18207;32.078;34.818;2022-10-31T01:03:26;2.40;;;2.20;;
23617;SDS011;18207;32.078;34.818;2022-10-31T01:06:01;2.47;;;2.28;;
23617;SDS011;18207;32.078;34.818;2022-10-31T01:08:35;2.40;;;2.20;;
23617;SDS011;18207;32.078;34.818;2022-10-31T01:11:07;2.22;;;2.13;;
23617;SDS011;18207;32.078;34.818;2022-10-31T01:13:40;2.35;;;2.15;;
23617;SDS011;18207;32.078;34.818;2022-10-31T01:16:12;2.17;;;2.05;;
23617;SDS011;18207;32.078;34.818;2022-10-31T01:18:47;2.22;;;2.03;;
23617;SDS011;18207;32.078;34.818;2022-10-31T01:21:24;2.22;;;2.03;;
23617;SDS011;18207;32.078;34.818;2022-10-31T01:24:00;2.20;;;2.00;;
23617;SDS011;18207;32.078;34.818;2022-10-31T01:26:35;2.10;;;2.00;;
23617;SDS011;18207;32.078;34.818;2022-10-31T01:29:07;2.13;;;2.03;;
23617;SDS011;18207;32.078;34.818;2022-10-31T01:31:40;2.50;;;2.30;;
23617;SDS011;18207;32.078;34.818;2022-10-31T01:34:22;2.45;;;2.08;;
23617;SDS011;18207;32.078;34.818;2022-10-31T01:36:56;2.30;;;1.98;;
23617;SDS011;18207;32.078;34.818;2022-10-31T01:39:29;2.15;;;1.95;;
23617;SDS011;18207;32.078;34.818;2022-10-31T01:42:02;2.08;;;1.92;;
23617;SDS011;18207;32.078;34.818;2022-10-31T01:44:48;2.30;;;2.10;;
23617;SDS011;18207;32.078;34.818;2022-10-31T01:47:29;2.10;;;2.00;;
23617;SDS011;18207;32.078;34.818;2022-10-31T01:50:18;3.28;;;1.88;;
23617;SDS011;18207;32.078;34.818;2022-10-31T01:52:58;3.30;;;2.10;;
23617;SDS011;18207;32.078;34.818;2022-10-31T01:55:32;2.17;;;2.05;;
23617;SDS011;18207;32.078;34.818;2022-10-31T01:58:22;2.03;;;1.80;;
23617;SDS011;18207;32.078;34.818;2022-10-31T02:00:58;2.10;;;1.90;;
23617;SDS011;18207;32.078;34.818;2022-10-31T02:03:33;2.20;;;2.00;;
23617;SDS011;18207;32.078;34.818;2022-10-31T02:06:04;2.47;;;2.28;;
23617;SDS011;18207;32.078;34.818;2022-10-31T02:08:49;2.50;;;2.30;;
23617;SDS011;18207;32.078;34.818;2022-10-31T02:11:35;2.15;;;1.95;;
23617;SDS011;18207;32.078;34.818;2022-10-31T02:14:06;2.28;;;2.10;;
23617;SDS011;18207;32.078;34.818;2022-10-31T02:16:37;2.00;;;1.90;;
23617;SDS011;18207;32.078;34.818;2022-10-31T02:19:10;2.20;;;2.10;;
23617;SDS011;18207;32.078;34.818;2022-10-31T02:21:48;2.00;;;1.90;;
23617;SDS011;18207;32.078;34.818;2022-10-31T02:30:41;2.40;;;1.85;;
23617;SDS011;18207;32.078;34.818;2022-10-31T02:33:35;2.10;;;1.90;;
23617;SDS011;18207;32.078;34.818;2022-10-31T02:36:15;2.63;;;2.00;;
23617;SDS011;18207;32.078;34.818;2022-10-31T02:39:10;3.00;;;2.03;;
23617;SDS011;18207;32.078;34.818;2022-10-31T02:41:52;1.95;;;1.85;;
23617;SDS011;18207;32.078;34.818;2022-10-31T02:44:36;2.10;;;1.90;;
23617;SDS011;18207;32.078;34.818;2022-10-31T02:47:23;2.05;;;1.95;;
23617;SDS011;18207;32.078;34.818;2022-10-31T02:50:00;2.22;;;2.03;;
23617;SDS011;18207;32.078;34.818;2022-10-31T02:52:37;2.30;;;2.10;;
23617;SDS011;18207;32.078;34.818;2022-10-31T02:55:10;2.17;;;1.95;;
23617;SDS011;18207;32.078;34.818;2022-10-31T02:58:02;2.75;;;2.00;;
23617;SDS011;18207;32.078;34.818;2022-10-31T03:00:41;2.00;;;1.90;;
23617;SDS011;18207;32.078;34.818;2022-10-31T03:03:24;2.33;;;2.13;;
23617;SDS011;18207;32.078;34.818;2022-10-31T03:06:17;2.10;;;2.00;;
23617;SDS011;18207;32.078;34.818;2022-10-31T03:08:59;2.80;;;2.20;;
23617;SDS011;18207;32.078;34.818;2022-10-31T03:11:45;4.28;;;1.88;;
23617;SDS011;18207;32.078;34.818;2022-10-31T03:14:31;2.22;;;2.00;;
23617;SDS011;18207;32.078;34.818;2022-10-31T03:20:02;2.10;;;1.90;;
23617;SDS011;18207;32.078;34.818;2022-10-31T03:22:40;2.10;;;2.00;;
23617;SDS011;18207;32.078;34.818;2022-10-31T03:25:23;1.83;;;1.73;;
23617;SDS011;18207;32.078;34.818;2022-10-31T03:27:55;2.72;;;1.83;;
23617;SDS011;18207;32.078;34.818;2022-10-31T03:30:32;2.22;;;1.90;;
23617;SDS011;18207;32.078;34.818;2022-10-31T03:33:07;2.10;;;2.00;;
23617;SDS011;18207;32.078;34.818;2022-10-31T03:35:45;2.10;;;2.00;;
23617;SDS011;18207;32.078;34.818;2022-10-31T03:38:19;2.30;;;2.00;;
23617;SDS011;18207;32.078;34.818;2022-10-31T03:40:53;2.28;;;1.83;;
23617;SDS011;18207;32.078;34.818;2022-10-31T03:43:29;2.10;;;2.00;;
23617;SDS011;18207;32.078;34.818;2022-10-31T03:46:12;2.20;;;2.10;;
23617;SDS011;18207;32.078;34.818;2022-10-31T03:49:19;2.00;;;1.90;;
23617;SDS011;18207;32.078;34.818;2022-10-31T03:51:54;2.25;;;2.13;;
23617;SDS011;18207;32.078;34.818;2022-10-31T03:54:31;3.38;;;2.50;;
23617;SDS011;18207;32.078;34.818;2022-10-31T03:57:13;2.47;;;1.88;;
23617;SDS011;18207;32.078;34.818;2022-10-31T03:59:51;1.80;;;1.70;;
23617;SDS011;18207;32.078;34.818;2022-10-31T04:02:29;2.00;;;1.90;;
23617;SDS011;18207;32.078;34.818;2022-10-31T04:05:03;1.90;;;1.80;;
23617;SDS011;18207;32.078;34.818;2022-10-31T04:07:38;2.15;;;2.00;;
23617;SDS011;18207;32.078;34.818;2022-10-31T04:10:16;1.90;;;1.80;;
23617;SDS011;18207;32.078;34.818;2022-10-31T04:12:48;2.17;;;2.00;;
23617;SDS011;18207;32.078;34.818;2022-10-31T04:15:25;2.55;;;2.00;;
23617;SDS011;18207;32.078;34.818;2022-10-31T04:17:57;2.17;;;2.05;;
23617;SDS011;18207;32.078;34.818;2022-10-31T04:20:29;2.40;;;2.20;;
23617;SDS011;18207;32.078;34.818;2022-10-31T04:23:03;2.25;;;2.05;;
23617;SDS011;18207;32.078;34.818;2022-10-31T04:25:40;2.33;;;2.13;;
23617;SDS011;18207;32.078;34.818;2022-10-31T04:28:10;2.35;;;2.17;;
23617;SDS011;18207;32.078;34.818;2022-10-31T04:30:40;2.20;;;2.03;;
23617;SDS011;18207;32.078;34.818;2022-10-31T04:33:10;2.72;;;2.05;;
23617;SDS011;18207;32.078;34.818;2022-10-31T04:35:41;2.53;;;1.90;;
23617;SDS011;18207;32.078;34.818;2022-10-31T04:38:14;2.08;;;1.90;;
23617;SDS011;18207;32.078;34.818;2022-10-31T04:40:44;2.83;;;2.08;;
23617;SDS011;18207;32.078;34.818;2022-10-31T04:43:15;2.30;;;2.10;;
23617;SDS011;18207;32.078;34.818;2022-10-31T04:45:45;2.13;;;2.03;;
23617;SDS011;18207;32.078;34.818;2022-10-31T04:48:24;2.30;;;2.13;;
23617;SDS011;18207;32.078;34.818;2022-10-31T04:50:58;2.10;;;2.00;;
23617;SDS011;18207;32.078;34.818;2022-10-31T04:53:31;2.25;;;2.10;;
23617;SDS011;18207;32.078;34.818;2022-10-31T04:56:02;2.10;;;1.90;;
23617;SDS011;18207;32.078;34.818;2022-10-31T04:58:33;2.17;;;2.00;;
23617;SDS011;18207;32.078;34.818;2022-10-31T05:01:03;2.33;;;1.95;;
23617;SDS011;18207;32.078;34.818;2022-10-31T05:03:34;2.00;;;1.90;;
23617;SDS011;18207;32.078;34.818;2022-10-31T05:06:06;1.88;;;1.77;;
23617;SDS011;18207;32.078;34.818;2022-10-31T05:08:39;2.00;;;1.75;;
23617;SDS011;18207;32.078;34.818;2022-10-31T05:11:09;2.08;;;1.98;;
23617;SDS011;18207;32.078;34.818;2022-10-31T05:16:23;2.00;;;1.90;;
23617;SDS011;18207;32.078;34.818;2022-10-31T05:19:02;3.50;;;2.15;;
23617;SDS011;18207;32.078;34.818;2022-10-31T05:21:34;2.03;;;1.90;;
23617;SDS011;18207;32.078;34.818;2022-10-31T05:24:09;2.10;;;2.00;;
23617;SDS011;18207;32.078;34.818;2022-10-31T05:26:39;2.25;;;2.10;;
23617;SDS011;18207;32.078;34.818;2022-10-31T05:29:13;2.28;;;2.00;;
23617;SDS011;18207;32.078;34.818;2022-10-31T05:31:43;2.50;;;2.30;;
23617;SDS011;18207;32.078;34.818;2022-10-31T05:34:13;2.20;;;2.00;;
23617;SDS011;18207;32.078;34.818;2022-10-31T05:36:46;2.33;;;2.08;;
23617;SDS011;18207;32.078;34.818;2022-10-31T05:39:18;2.05;;;1.95;;
23617;SDS011;18207;32.078;34.818;2022-10-31T05:41:49;2.15;;;2.00;;
23617;SDS011;18207;32.078;34.818;2022-10-31T05:47:20;2.00;;;1.90;;
23617;SDS011;18207;32.078;34.818;2022-10-31T05:50:33;2.00;;;1.80;;
23617;SDS011;18207;32.078;34.818;2022-10-31T05:53:04;1.88;;;1.77;;
23617;SDS011;18207;32.078;34.818;2022-10-31T05:55:36;1.80;;;1.70;;
23617;SDS011;18207;32.078;34.818;2022-10-31T05:58:16;2.20;;;2.03;;
23617;SDS011;18207;32.078;34.818;2022-10-31T06:00:46;2.88;;;1.98;;
23617;SDS011;18207;32.078;34.818;2022-10-31T06:03:16;2.88;;;2.00;;
23617;SDS011;18207;32.078;34.818;2022-10-31T06:05:46;2.08;;;1.98;;
23617;SDS011;18207;32.078;34.818;2022-10-31T06:08:20;1.85;;;1.75;;
23617;SDS011;18207;32.078;34.818;2022-10-31T06:10:52;2.10;;;1.95;;
23617;SDS011;18207;32.078;34.818;2022-10-31T06:13:22;2.20;;;2.08;;
23617;SDS011;18207;32.078;34.818;2022-10-31T06:15:52;2.22;;;2.13;;
23617;SDS011;18207;32.078;34.818;2022-10-31T06:18:22;2.25;;;2.08;;
23617;SDS011;18207;32.078;34.818;2022-10-31T06:20:55;2.30;;;2.10;;
23617;SDS011;18207;32.078;34.818;2022-10-31T06:23:25;2.15;;;1.95;;
23617;SDS011;18207;32.078;34.818;2022-10-31T06:25:57;2.20;;;2.05;;
23617;SDS011;18207;32.078;34.818;2022-10-31T06:36:29;2.20;;;2.10;;
23617;SDS011;18207;32.078;34.818;2022-10-31T06:39:08;2.47;;;2.10;;
23617;SDS011;18207;32.078;34.818;2022-10-31T06:41:44;2.92;;;2.15;;
23617;SDS011;18207;32.078;34.818;2022-10-31T06:44:16;2.25;;;2.08;;
23617;SDS011;18207;32.078;34.818;2022-10-31T06:46:46;2.00;;;1.90;;
23617;SDS011;18207;32.078;34.818;2022-10-31T06:49:16;1.85;;;1.75;;
23617;SDS011;18207;32.078;34.818;2022-10-31T06:51:47;1.98;;;1.88;;
23617;SDS011;18207;32.078;34.818;2022-10-31T06:54:18;2.15;;;1.95;;
23617;SDS011;18207;32.078;34.818;2022-10-31T07:04:49;2.00;;;1.80;;
23617;SDS011;18207;32.078;34.818;2022-10-31T07:07:21;1.83;;;1.60;;
23617;SDS011;18207;32.078;34.818;2022-10-31T07:09:53;1.75;;;1.65;;
23617;SDS011;18207;32.078;34.818;2022-10-31T07:12:24;1.75;;;1.60;;
23617;SDS011;18207;32.078;34.818;2022-10-31T07:14:59;2.20;;;2.00;;
23617;SDS011;18207;32.078;34.818;2022-10-31T07:17:30;2.13;;;1.90;;
23617;SDS011;18207;32.078;34.818;2022-10-31T07:20:02;1.77;;;1.67;;
23617;SDS011;18207;32.078;34.818;2022-10-31T07:22:35;1.52;;;1.42;;
23617;SDS011;18207;32.078;34.818;2022-10-31T07:33:06;1.38;;;1.30;;
23617;SDS011;18207;32.078;34.818;2022-10-31T07:35:39;1.33;;;1.33;;
23617;SDS011;18207;32.078;34.818;2022-10-31T07:38:12;1.65;;;1.55;;
23617;SDS011;18207;32.078;34.818;2022-10-31T07:40:58;1.60;;;1.50;;
23617;SDS011;18207;32.078;34.818;2022-10-31T07:43:28;1.90;;;1.48;;
23617;SDS011;18207;32.078;34.818;2022-10-31T07:45:58;1.40;;;1.30;;
23617;SDS011;18207;32.078;34.818;2022-10-31T07:48:29;1.25;;;1.15;;
23617;SDS011;18207;32.078;34.818;2022-10-31T07:51:01;1.55;;;1.20;;
23617;SDS011;18207;32.078;34.818;2022-10-31T07:53:50;1.25;;;1.15;;
23617;SDS011;18207;32.078;34.818;2022-10-31T07:56:20;1.40;;;1.30;;
23617;SDS011;18207;32.078;34.818;2022-10-31T07:58:51;0.93;;;0.93;;
23617;SDS011;18207;32.078;34.818;2022-10-31T08:01:21;1.33;;;1.23;;
23617;SDS011;18207;32.078;34.818;2022-10-31T08:03:56;0.98;;;0.98;;
23617;SDS011;18207;32.078;34.818;2022-10-31T08:06:27;1.40;;;1.30;;
23617;SDS011;18207;32.078;34.818;2022-10-31T08:08:58;1.35;;;1.25;;
23617;SDS011;18207;32.078;34.818;2022-10-31T08:11:29;1.70;;;1.00;;
23617;SDS011;18207;32.078;34.818;2022-10-31T08:13:59;0.98;;;0.98;;
23617;SDS011;18207;32.078;34.818;2022-10-31T08:16:38;1.40;;;1.30;;
23617;SDS011;18207;32.078;34.818;2022-10-31T08:19:08;1.35;;;1.25;;
23617;SDS011;18207;32.078;34.818;2022-10-31T08:21:40;1.88;;;1.05;;
23617;SDS011;18207;32.078;34.818;2022-10-31T08:24:10;1.20;;;1.10;;
23617;SDS011;18207;32.078;34.818;2022-10-31T08:26:43;1.10;;;1.05;;
23617;SDS011;18207;32.078;34.818;2022-10-31T08:29:16;1.52;;;1.42;;
23617;SDS011;18207;32.078;34.818;2022-10-31T08:31:46;1.40;;;1.30;;
23617;SDS011;18207;32.078;34.818;2022-10-31T08:34:30;1.20;;;1.10;;
23617;SDS011;18207;32.078;34.818;2022-10-31T08:37:18;1.80;;;1.15;;
23617;SDS011;18207;32.078;34.818;2022-10-31T08:39:48;1.08;;;1.00;;
23617;SDS011;18207;32.078;34.818;2022-10-31T08:42:19;1.58;;;1.48;;
23617;SDS011;18207;32.078;34.818;2022-10-31T08:44:49;1.13;;;0.98;;
23617;SDS011;18207;32.078;34.818;2022-10-31T08:47:18;1.20;;;1.20;;
23617;SDS011;18207;32.078;34.818;2022-10-31T08:49:51;1.40;;;1.30;;
23617;SDS011;18207;32.078;34.818;2022-10-31T08:52:24;1.20;;;1.10;;
23617;SDS011;18207;32.078;34.818;2022-10-31T08:55:16;1.58;;;1.33;;
23617;SDS011;18207;32.078;34.818;2022-10-31T08:57:47;1.30;;;1.20;;
23617;SDS011;18207;32.078;34.818;2022-10-31T09:00:17;1.30;;;1.20;;
23617;SDS011;18207;32.078;34.818;2022-10-31T09:02:47;1.92;;;1.30;;
23617;SDS011;18207;32.078;34.818;2022-10-31T09:05:25;1.30;;;1.20;;
23617;SDS011;18207;32.078;34.818;2022-10-31T09:07:58;1.20;;;1.10;;
23617;SDS011;18207;32.078;34.818;2022-10-31T09:10:34;1.05;;;0.98;;
23617;SDS011;18207;32.078;34.818;2022-10-31T09:13:09;1.75;;;1.45;;
23617;SDS011;18207;32.078;34.818;2022-10-31T09:15:41;1.60;;;1.50;;
23617;SDS011;18207;32.078;34.818;2022-10-31T09:18:14;1.50;;;1.40;;
23617;SDS011;18207;32.078;34.818;2022-10-31T09:20:47;1.40;;;1.40;;
23617;SDS011;18207;32.078;34.818;2022-10-31T09:23:23;1.17;;;1.13;;
23617;SDS011;18207;32.078;34.818;2022-10-31T09:25:53;1.30;;;1.20;;
23617;SDS011;18207;32.078;34.818;2022-10-31T09:28:26;0.82;;;0.82;;
23617;SDS011;18207;32.078;34.818;2022-10-31T09:30:56;1.27;;;1.25;;
23617;SDS011;18207;32.078;34.818;2022-10-31T09:33:30;1.30;;;1.20;;
23617;SDS011;18207;32.078;34.818;2022-10-31T09:36:00;1.38;;;1.27;;
23617;SDS011;18207;32.078;34.818;2022-10-31T09:38:45;1.30;;;1.20;;
23617;SDS011;18207;32.078;34.818;2022-10-31T09:41:17;1.20;;;1.20;;
23617;SDS011;18207;32.078;34.818;2022-10-31T09:44:24;1.30;;;1.20;;
23617;SDS011;18207;32.078;34.818;2022-10-31T09:47:05;1.25;;;1.10;;
23617;SDS011;18207;32.078;34.818;2022-10-31T09:52:51;1.35;;;1.20;;
23617;SDS011;18207;32.078;34.818;2022-10-31T09:55:35;1.10;;;1.10;;
23617;SDS011;18207;32.078;34.818;2022-10-31T09:58:12;1.00;;;1.00;;
23617;SDS011;18207;32.078;34.818;2022-10-31T10:00:50;1.38;;;1.27;;
23617;SDS011;18207;32.078;34.818;2022-10-31T10:03:28;1.20;;;1.10;;
23617;SDS011;18207;32.078;34.818;2022-10-31T10:06:07;1.38;;;1.27;;
23617;SDS011;18207;32.078;34.818;2022-10-31T10:08:47;1.02;;;1.02;;
23617;SDS011;18207;32.078;34.818;2022-10-31T10:17:36;0.98;;;0.90;;
23617;SDS011;18207;32.078;34.818;2022-10-31T10:20:20;2.97;;;1.40;;
23617;SDS011;18207;32.078;34.818;2022-10-31T10:23:20;0.93;;;0.93;;
23617;SDS011;18207;32.078;34.818;2022-10-31T10:26:13;1.15;;;1.15;;
23617;SDS011;18207;32.078;34.818;2022-10-31T10:28:51;1.30;;;1.30;;
23617;SDS011;18207;32.078;34.818;2022-10-31T10:31:41;1.45;;;1.35;;
23617;SDS011;18207;32.078;34.818;2022-10-31T10:34:18;1.05;;;0.95;;
23617;SDS011;18207;32.078;34.818;2022-10-31T10:36:58;1.33;;;1.15;;
23617;SDS011;18207;32.078;34.818;2022-10-31T10:39:35;1.13;;;1.08;;
23617;SDS011;18207;32.078;34.818;2022-10-31T10:42:10;1.27;;;1.17;;
23617;SDS011;18207;32.078;34.818;2022-10-31T10:45:06;1.15;;;1.05;;
23617;SDS011;18207;32.078;34.818;2022-10-31T10:48:06;1.42;;;1.17;;
23617;SDS011;18207;32.078;34.818;2022-10-31T10:50:46;2.25;;;0.95;;
23617;SDS011;18207;32.078;34.818;2022-10-31T10:53:25;1.15;;;1.08;;
23617;SDS011;18207;32.078;34.818;2022-10-31T10:56:40;1.10;;;1.00;;
23617;SDS011;18207;32.078;34.818;2022-10-31T10:59:46;0.85;;;0.85;;
23617;SDS011;18207;32.078;34.818;2022-10-31T11:02:19;0.93;;;0.90;;
23617;SDS011;18207;32.078;34.818;2022-10-31T11:04:53;1.30;;;1.05;;
23617;SDS011;18207;32.078;34.818;2022-10-31T11:07:37;1.20;;;1.10;;
23617;SDS011;18207;32.078;34.818;2022-10-31T11:10:11;0.93;;;0.93;;
23617;SDS011;18207;32.078;34.818;2022-10-31T11:12:43;1.20;;;1.10;;
23617;SDS011;18207;32.078;34.818;2022-10-31T11:15:49;1.33;;;1.05;;
23617;SDS011;18207;32.078;34.818;2022-10-31T11:18:28;1.58;;;0.90;;
23617;SDS011;18207;32.078;34.818;2022-10-31T11:24:01;2.75;;;1.30;;
23617;SDS011;18207;32.078;34.818;2022-10-31T11:26:41;1.08;;;1.02;;
23617;SDS011;18207;32.078;34.818;2022-10-31T11:29:17;1.35;;;1.25;;
23617;SDS011;18207;32.078;34.818;2022-10-31T11:31:53;1.23;;;1.13;;
23617;SDS011;18207;32.078;34.818;2022-10-31T11:34:29;1.15;;;1.05;;
23617;SDS011;18207;32.078;34.818;2022-10-31T11:37:15;1.27;;;1.17;;
23617;SDS011;18207;32.078;34.818;2022-10-31T11:39:50;1.00;;;1.00;;
23617;SDS011;18207;32.078;34.818;2022-10-31T11:42:27;1.20;;;1.02;;
23617;SDS011;18207;32.078;34.818;2022-10-31T11:45:05;1.35;;;1.20;;
23617;SDS011;18207;32.078;34.818;2022-10-31T11:47:47;1.10;;;1.10;;
23617;SDS011;18207;32.078;34.818;2022-10-31T11:50:31;1.20;;;1.10;;
23617;SDS011;18207;32.078;34.818;2022-10-31T11:53:11;1.40;;;1.13;;
23617;SDS011;18207;32.078;34.818;2022-10-31T11:56:01;1.25;;;1.15;;
23617;SDS011;18207;32.078;34.818;2022-10-31T11:58:41;2.70;;;1.40;;
23617;SDS011;18207;32.078;34.818;2022-10-31T12:01:21;1.63;;;1.50;;
23617;SDS011;18207;32.078;34.818;2022-10-31T12:03:57;1.75;;;1.45;;
23617;SDS011;18207;32.078;34.818;2022-10-31T12:06:39;1.67;;;1.58;;
23617;SDS011;18207;32.078;34.818;2022-10-31T12:09:18;1.40;;;1.20;;
23617;SDS011;18207;32.078;34.818;2022-10-31T12:11:59;1.45;;;1.35;;
23617;SDS011;18207;32.078;34.818;2022-10-31T12:14:59;1.25;;;1.15;;
23617;SDS011;18207;32.078;34.818;2022-10-31T12:17:58;0.95;;;0.95;;
23617;SDS011;18207;32.078;34.818;2022-10-31T12:20:54;1.92;;;1.02;;
23617;SDS011;18207;32.078;34.818;2022-10-31T12:23:41;1.15;;;1.02;;
23617;SDS011;18207;32.078;34.818;2022-10-31T12:26:29;1.02;;;1.00;;
23617;SDS011;18207;32.078;34.818;2022-10-31T12:29:17;1.10;;;1.00;;
23617;SDS011;18207;32.078;34.818;2022-10-31T12:32:21;0.90;;;0.90;;
23617;SDS011;18207;32.078;34.818;2022-10-31T12:35:22;0.90;;;0.88;;
23617;SDS011;18207;32.078;34.818;2022-10-31T12:38:22;1.30;;;0.90;;
23617;SDS011;18207;32.078;34.818;2022-10-31T12:41:21;1.50;;;0.70;;
23617;SDS011;18207;32.078;34.818;2022-10-31T12:44:12;0.75;;;0.73;;
23617;SDS011;18207;32.078;34.818;2022-10-31T12:47:11;1.30;;;1.20;;
23617;SDS011;18207;32.078;34.818;2022-10-31T12:53:17;0.70;;;0.70;;
23617;SDS011;18207;32.078;34.818;2022-10-31T12:56:12;0.75;;;0.68;;
23617;SDS011;18207;32.078;34.818;2022-10-31T12:59:04;0.70;;;0.70;;
23617;SDS011;18207;32.078;34.818;2022-10-31T13:01:46;0.75;;;0.75;;
23617;SDS011;18207;32.078;34.818;2022-10-31T13:04:29;0.77;;;0.77;;
23617;SDS011;18207;32.078;34.818;2022-10-31T13:07:14;0.57;;;0.57;;
23617;SDS011;18207;32.078;34.818;2022-10-31T13:09:56;0.70;;;0.70;;
23617;SDS011;18207;32.078;34.818;2022-10-31T13:12:43;2.17;;;0.95;;
23617;SDS011;18207;32.078;34.818;2022-10-31T13:15:18;0.80;;;0.80;;
23617;SDS011;18207;32.078;34.818;2022-10-31T13:17:53;0.93;;;0.90;;
23617;SDS011;18207;32.078;34.818;2022-10-31T13:20:29;0.88;;;0.88;;
23617;SDS011;18207;32.078;34.818;2022-10-31T13:23:14;0.80;;;0.80;;
23617;SDS011;18207;32.078;34.818;2022-10-31T13:26:15;0.90;;;0.90;;
23617;SDS011;18207;32.078;34.818;2022-10-31T13:29:09;0.90;;;0.90;;
23617;SDS011;18207;32.078;34.818;2022-10-31T13:31:52;0.80;;;0.80;;
23617;SDS011;18207;32.078;34.818;2022-10-31T13:34:25;1.65;;;1.05;;
23617;SDS011;18207;32.078;34.818;2022-10-31T13:37:04;0.90;;;0.90;;
23617;SDS011;18207;32.078;34.818;2022-10-31T13:39:49;0.82;;;0.82;;
23617;SDS011;18207;32.078;34.818;2022-10-31T13:42:40;1.15;;;1.00;;
23617;SDS011;18207;32.078;34.818;2022-10-31T13:45:25;0.60;;;0.60;;
23617;SDS011;18207;32.078;34.818;2022-10-31T13:47:58;0.77;;;0.73;;
23617;SDS011;18207;32.078;34.818;2022-10-31T13:51:02;0.68;;;0.68;;
23617;SDS011;18207;32.078;34.818;2022-10-31T13:53:38;0.65;;;0.65;;
23617;SDS011;18207;32.078;34.818;2022-10-31T13:56:14;1.50;;;1.40;;
23617;SDS011;18207;32.078;34.818;2022-10-31T13:58:56;1.38;;;1.30;;
23617;SDS011;18207;32.078;34.818;2022-10-31T14:01:33;1.13;;;1.02;;
23617;SDS011;18207;32.078;34.818;2022-10-31T14:07:13;1.20;;;1.10;;
23617;SDS011;18207;32.078;34.818;2022-10-31T14:09:51;1.10;;;1.10;;
23617;SDS011;18207;32.078;34.818;2022-10-31T14:12:30;0.85;;;0.70;;
23617;SDS011;18207;32.078;34.818;2022-10-31T14:15:12;0.88;;;0.88;;
23617;SDS011;18207;32.078;34.818;2022-10-31T14:17:51;0.90;;;0.90;;
23617;SDS011;18207;32.078;34.818;2022-10-31T14:20:34;0.98;;;0.93;;
23617;SDS011;18207;32.078;34.818;2022-10-31T14:23:13;0.80;;;0.80;;
23617;SDS011;18207;32.078;34.818;2022-10-31T14:29:21;0.82;;;0.82;;
23617;SDS011;18207;32.078;34.818;2022-10-31T14:31:58;0.60;;;0.60;;
23617;SDS011;18207;32.078;34.818;2022-10-31T14:34:53;0.70;;;0.70;;
23617;SDS011;18207;32.078;34.818;2022-10-31T14:40:39;0.75;;;0.75;;
23617;SDS011;18207;32.078;34.818;2022-10-31T14:43:47;0.80;;;0.80;;
23617;SDS011;18207;32.078;34.818;2022-10-31T14:46:48;0.65;;;0.65;;
23617;SDS011;18207;32.078;34.818;2022-10-31T14:49:36;0.88;;;0.88;;
23617;SDS011;18207;32.078;34.818;2022-10-31T14:52:34;0.82;;;0.82;;
23617;SDS011;18207;32.078;34.818;2022-10-31T14:55:09;0.90;;;0.88;;
23617;SDS011;18207;32.078;34.818;2022-10-31T14:57:48;0.80;;;0.80;;
23617;SDS011;18207;32.078;34.818;2022-10-31T15:00:26;0.85;;;0.75;;
23617;SDS011;18207;32.078;34.818;2022-10-31T15:03:09;0.80;;;0.80;;
23617;SDS011;18207;32.078;34.818;2022-10-31T15:05:48;0.90;;;0.90;;
23617;SDS011;18207;32.078;34.818;2022-10-31T15:08:31;1.13;;;1.00;;
23617;SDS011;18207;32.078;34.818;2022-10-31T15:11:10;0.80;;;0.80;;
23617;SDS011;18207;32.078;34.818;2022-10-31T15:13:46;0.80;;;0.80;;
23617;SDS011;18207;32.078;34.818;2022-10-31T15:16:20;1.02;;;1.00;;
23617;SDS011;18207;32.078;34.818;2022-10-31T15:18:55;1.17;;;1.08;;
23617;SDS011;18207;32.078;34.818;2022-10-31T15:21:29;1.10;;;1.10;;
23617;SDS011;18207;32.078;34.818;2022-10-31T15:24:05;1.25;;;1.17;;
23617;SDS011;18207;32.078;34.818;2022-10-31T15:26:44;1.00;;;1.00;;
23617;SDS011;18207;32.078;34.818;2022-10-31T15:29:17;1.23;;;1.10;;
23617;SDS011;18207;32.078;34.818;2022-10-31T15:31:57;1.10;;;1.00;;
23617;SDS011;18207;32.078;34.818;2022-10-31T15:34:44;1.40;;;0.88;;
23617;SDS011;18207;32.078;34.818;2022-10-31T15:37:17;0.82;;;0.82;;
23617;SDS011;18207;32.078;34.818;2022-10-31T15:39:51;1.15;;;1.05;;
23617;SDS011;18207;32.078;34.818;2022-10-31T15:42:25;0.82;;;0.82;;
23617;SDS011;18207;32.078;34.818;2022-10-31T15:45:16;1.45;;;1.05;;
23617;SDS011;18207;32.078;34.818;2022-10-31T15:47:54;0.90;;;0.90;;
23617;SDS011;18207;32.078;34.818;2022-10-31T15:50:31;0.85;;;0.70;;
23617;SDS011;18207;32.078;34.818;2022-10-31T15:53:14;0.73;;;0.73;;
23617;SDS011;18207;32.078;34.818;2022-10-31T15:55:53;0.75;;;0.75;;
23617;SDS011;18207;32.078;34.818;2022-10-31T15:58:29;1.10;;;0.73;;
23617;SDS011;18207;32.078;34.818;2022-10-31T16:01:21;0.90;;;0.90;;
23617;SDS011;18207;32.078;34.818;2022-10-31T16:03:57;1.20;;;1.20;;
23617;SDS011;18207;32.078;34.818;2022-10-31T16:06:58;0.80;;;0.80;;
23617;SDS011;18207;32.078;34.818;2022-10-31T16:09:33;1.00;;;1.00;;
23617;SDS011;18207;32.078;34.818;2022-10-31T16:12:12;0.98;;;0.98;;
23617;SDS011;18207;32.078;34.818;2022-10-31T16:14:48;0.65;;;0.65;;
23617;SDS011;18207;32.078;34.818;2022-10-31T16:17:22;0.90;;;0.90;;
23617;SDS011;18207;32.078;34.818;2022-10-31T16:19:57;0.90;;;0.90;;
23617;SDS011;18207;32.078;34.818;2022-10-31T16:22:30;1.13;;;0.93;;
23617;SDS011;18207;32.078;34.818;2022-10-31T16:25:05;0.88;;;0.88;;
23617;SDS011;18207;32.078;34.818;2022-10-31T16:27:46;0.75;;;0.75;;
23617;SDS011;18207;32.078;34.818;2022-10-31T16:30:30;1.13;;;1.08;;
23617;SDS011;18207;32.078;34.818;2022-10-31T16:33:24;0.82;;;0.82;;
23617;SDS011;18207;32.078;34.818;2022-10-31T16:36:00;1.02;;;1.02;;
23617;SDS011;18207;32.078;34.818;2022-10-31T16:39:03;1.25;;;1.00;;
23617;SDS011;18207;32.078;34.818;2022-10-31T16:41:37;0.93;;;0.93;;
23617;SDS011;18207;32.078;34.818;2022-10-31T16:44:18;0.82;;;0.82;;